Time;durP1;ratioP1;P1;durP2;ratioP2;P2;SDS_P1;SDS_P2;PMS_P1;PMS_P2;Temp;Humidity;BMP_temperature;BMP_pressure;BME280_temperature;BME280_humidity;BME280_pressure;Samples;Min_cycle;Max_cycle;Signal;HPM_P1;HPM_P2
2022/03/12 00:00:48;;;;;;;49.43;27.27;;;;;;;;;;761227;184;661148;-65
2022/03/12 00:03:14;;;;;;;55.90;28.20;;;;;;;;;;757696;184;636748;-64
2022/03/12 00:05:52;;;;;;;54.00;28.13;;;;;;;;;;756118;184;679166;-65
2022/03/12 00:08:08;;;;;;;52.40;27.27;;;;;;;;;;758473;184;633182;-65
2022/03/12 00:10:33;;;;;;;45.57;28.07;;;;;;;;;;757990;184;625292;-64
2022/03/12 00:12:59;;;;;;;53.27;27.77;;;;;;;;;;752599;185;615653;-64
2022/03/12 00:15:24;;;;;;;53.75;29.15;;;;;;;;;;745462;187;681557;-66
2022/03/12 00:17:51;;;;;;;49.20;27.37;;;;;;;;;;751835;183;636866;-64
2022/03/12 00:20:18;;;;;;;46.67;24.67;;;;;;;;;;757025;186;619382;-65
2022/03/12 00:22:44;;;;;;;52.60;26.73;;;;;;;;;;754768;186;625445;-64
2022/03/12 00:25:11;;;;;;;46.80;25.63;;;;;;;;;;757414;187;614985;-65
2022/03/12 00:27:36;;;;;;;66.10;29.83;;;;;;;;;;750944;184;628938;-64
2022/03/12 00:30:02;;;;;;;50.90;28.10;;;;;;;;;;749577;185;630670;-65
2022/03/12 00:32:27;;;;;;;51.13;30.33;;;;;;;;;;752179;183;629105;-64
2022/03/12 00:34:52;;;;;;;53.37;29.70;;;;;;;;;;751205;184;634106;-63
2022/03/12 00:37:19;;;;;;;49.20;28.77;;;;;;;;;;750273;183;626717;-65
2022/03/12 00:39:47;;;;;;;51.93;29.60;;;;;;;;;;752147;183;622229;-65
2022/03/12 00:42:13;;;;;;;52.90;29.13;;;;;;;;;;737165;183;632243;-65
2022/03/12 00:44:36;;;;;;;54.50;28.37;;;;;;;;;;742735;190;634901;-64
2022/03/12 00:47:03;;;;;;;52.80;30.40;;;;;;;;;;745208;185;639129;-65
2022/03/12 00:49:28;;;;;;;50.47;29.27;;;;;;;;;;759787;184;616873;-64
2022/03/12 00:51:53;;;;;;;62.63;32.47;;;;;;;;;;751666;184;736824;-65
2022/03/12 00:54:19;;;;;;;55.80;30.20;;;;;;;;;;752086;184;633708;-65
2022/03/12 00:56:45;;;;;;;56.83;30.87;;;;;;;;;;757315;184;621715;-64
2022/03/12 00:59:11;;;;;;;54.40;31.53;;;;;;;;;;760092;184;622861;-65
2022/03/12 01:01:37;;;;;;;48.60;28.90;;;;;;;;;;763621;184;621388;-64
2022/03/12 01:04:02;;;;;;;56.50;31.10;;;;;;;;;;756757;184;641071;-63
2022/03/12 01:06:28;;;;;;;61.60;35.40;;;;;;;;;;754534;184;639258;-63
2022/03/12 01:08:54;;;;;;;53.90;28.87;;;;;;;;;;755364;184;635974;-65
2022/03/12 01:11:20;;;;;;;58.40;32.30;;;;;;;;;;760787;184;642270;-63
2022/03/12 01:13:46;;;;;;;60.73;32.90;;;;;;;;;;753765;184;625415;-63
2022/03/12 01:16:12;;;;;;;51.83;29.20;;;;;;;;;;754281;184;632479;-63
2022/03/12 01:18:39;;;;;;;64.10;30.70;;;;;;;;;;765276;182;632868;-65
2022/03/12 01:21:06;;;;;;;53.90;31.43;;;;;;;;;;769515;183;617057;-63
2022/03/12 01:23:32;;;;;;;57.23;32.60;;;;;;;;;;765080;183;615115;-64
2022/03/12 01:25:58;;;;;;;72.27;34.33;;;;;;;;;;765143;183;619376;-64
2022/03/12 01:28:24;;;;;;;53.77;33.57;;;;;;;;;;769138;184;642133;-64
2022/03/12 01:30:50;;;;;;;64.30;33.93;;;;;;;;;;766084;184;750490;-64
2022/03/12 01:33:15;;;;;;;57.43;31.60;;;;;;;;;;759833;184;632594;-64
2022/03/12 01:35:41;;;;;;;63.83;33.93;;;;;;;;;;757820;186;629087;-72
2022/03/12 01:38:07;;;;;;;55.33;33.30;;;;;;;;;;754362;186;630009;-63
2022/03/12 01:40:33;;;;;;;50.97;30.83;;;;;;;;;;752765;184;633625;-64
2022/03/12 01:42:59;;;;;;;48.47;30.20;;;;;;;;;;752558;185;623372;-64
2022/03/12 01:45:27;;;;;;;56.27;31.90;;;;;;;;;;757065;184;607457;-63
2022/03/12 01:47:54;;;;;;;52.57;31.30;;;;;;;;;;758227;184;618012;-63
2022/03/12 01:50:16;;;;;;;60.00;32.63;;;;;;;;;;764143;184;628228;-65
2022/03/12 01:52:42;;;;;;;65.93;33.77;;;;;;;;;;765342;184;639496;-64
2022/03/12 01:55:08;;;;;;;56.13;32.37;;;;;;;;;;757221;185;637711;-64
2022/03/12 01:57:34;;;;;;;61.80;33.60;;;;;;;;;;754745;184;630182;-65
2022/03/12 02:00:00;;;;;;;56.47;33.40;;;;;;;;;;748538;187;626965;-64
2022/03/12 02:02:28;;;;;;;58.27;34.37;;;;;;;;;;754454;184;630698;-63
2022/03/12 02:04:52;;;;;;;68.73;34.30;;;;;;;;;;746299;187;732135;-63
2022/03/12 02:07:18;;;;;;;63.17;36.03;;;;;;;;;;741981;184;628106;-63
2022/03/12 02:09:44;;;;;;;62.97;35.73;;;;;;;;;;753056;186;629239;-64
2022/03/12 02:12:09;;;;;;;62.30;30.80;;;;;;;;;;756327;186;617276;-64
2022/03/12 02:14:36;;;;;;;63.53;34.00;;;;;;;;;;752206;185;848465;-64
2022/03/12 02:17:02;;;;;;;58.10;33.83;;;;;;;;;;754727;185;636559;-63
2022/03/12 02:19:27;;;;;;;70.63;37.10;;;;;;;;;;750756;184;624943;-62
2022/03/12 02:21:53;;;;;;;66.83;34.80;;;;;;;;;;749647;185;620151;-62
2022/03/12 02:24:19;;;;;;;55.50;33.93;;;;;;;;;;754889;183;626923;-64
2022/03/12 02:26:45;;;;;;;65.63;34.63;;;;;;;;;;752469;184;624887;-64
2022/03/12 02:29:12;;;;;;;59.23;33.13;;;;;;;;;;755557;185;648728;-64
2022/03/12 02:31:37;;;;;;;63.83;33.80;;;;;;;;;;761816;185;622568;-63
2022/03/12 02:34:04;;;;;;;63.90;36.47;;;;;;;;;;758363;184;636086;-64
2022/03/12 02:36:29;;;;;;;61.57;34.07;;;;;;;;;;758527;185;631996;-64
2022/03/12 02:38:55;;;;;;;70.10;36.87;;;;;;;;;;751118;183;636924;-64
2022/03/12 02:41:20;;;;;;;59.50;33.30;;;;;;;;;;755029;184;616989;-64
2022/03/12 02:43:46;;;;;;;55.30;32.40;;;;;;;;;;751380;183;615691;-63
2022/03/12 02:46:13;;;;;;;63.33;33.50;;;;;;;;;;750437;183;634431;-64
2022/03/12 02:48:39;;;;;;;65.73;36.60;;;;;;;;;;752734;183;621168;-64
2022/03/12 02:51:05;;;;;;;57.23;31.80;;;;;;;;;;748750;184;639945;-63
2022/03/12 02:53:31;;;;;;;52.77;33.60;;;;;;;;;;748970;183;627025;-62
2022/03/12 02:55:56;;;;;;;64.67;32.77;;;;;;;;;;752807;183;628686;-61
2022/03/12 02:58:22;;;;;;;65.90;32.67;;;;;;;;;;753582;183;624981;-60
2022/03/12 03:00:49;;;;;;;55.90;32.30;;;;;;;;;;758745;184;627389;-60
2022/03/12 03:03:14;;;;;;;56.30;32.77;;;;;;;;;;762257;184;638056;-60
2022/03/12 03:05:45;;;;;;;64.37;35.60;;;;;;;;;;767255;184;614656;-60
2022/03/12 03:08:06;;;;;;;69.83;32.00;;;;;;;;;;761676;184;617185;-60
2022/03/12 03:10:34;;;;;;;75.90;36.30;;;;;;;;;;749554;184;619437;-60
2022/03/12 03:12:59;;;;;;;57.60;32.20;;;;;;;;;;751923;184;703834;-64
2022/03/12 03:15:25;;;;;;;61.73;36.10;;;;;;;;;;752203;186;636290;-63
2022/03/12 03:17:51;;;;;;;60.63;34.80;;;;;;;;;;754630;185;634739;-63
2022/03/12 03:20:17;;;;;;;66.13;35.03;;;;;;;;;;761868;183;639081;-63
2022/03/12 03:22:43;;;;;;;62.97;33.20;;;;;;;;;;758039;185;627417;-66
2022/03/12 03:25:09;;;;;;;61.27;35.77;;;;;;;;;;753840;184;638607;-63
2022/03/12 03:27:34;;;;;;;57.47;36.23;;;;;;;;;;752983;185;628603;-63
2022/03/12 03:30:00;;;;;;;77.23;38.67;;;;;;;;;;746371;185;618892;-63
2022/03/12 03:32:26;;;;;;;61.17;36.93;;;;;;;;;;748342;188;621508;-63
2022/03/12 03:34:52;;;;;;;64.23;36.30;;;;;;;;;;752063;185;615177;-63
2022/03/12 03:37:18;;;;;;;75.07;36.83;;;;;;;;;;758988;184;625529;-62
2022/03/12 03:39:44;;;;;;;62.50;39.80;;;;;;;;;;766888;183;625178;-63
2022/03/12 03:42:09;;;;;;;80.67;39.03;;;;;;;;;;770341;183;625410;-63
2022/03/12 03:44:35;;;;;;;62.00;36.00;;;;;;;;;;768737;183;619031;-62
2022/03/12 03:47:01;;;;;;;67.23;35.80;;;;;;;;;;765509;183;621065;-63
2022/03/12 03:49:27;;;;;;;66.57;36.63;;;;;;;;;;754443;183;658279;-62
2022/03/12 03:51:56;;;;;;;65.03;36.30;;;;;;;;;;752796;184;626986;-61
2022/03/12 03:54:19;;;;;;;56.47;35.17;;;;;;;;;;751032;183;635998;-63
2022/03/12 03:56:45;;;;;;;75.93;39.33;;;;;;;;;;752298;183;616225;-63
2022/03/12 03:59:11;;;;;;;62.97;38.00;;;;;;;;;;756311;185;623065;-62
2022/03/12 04:01:39;;;;;;;70.63;36.70;;;;;;;;;;757262;185;631126;-62
2022/03/12 04:04:04;;;;;;;66.90;36.97;;;;;;;;;;759240;183;616929;-63
2022/03/12 04:06:30;;;;;;;71.03;37.00;;;;;;;;;;768000;183;644754;-62
2022/03/12 04:08:56;;;;;;;72.10;39.97;;;;;;;;;;764650;184;632556;-63
2022/03/12 04:11:21;;;;;;;62.27;34.77;;;;;;;;;;752613;184;619193;-63
2022/03/12 04:13:47;;;;;;;69.17;35.97;;;;;;;;;;752328;186;635112;-62
2022/03/12 04:16:13;;;;;;;60.40;35.80;;;;;;;;;;755618;184;625175;-61
2022/03/12 04:18:40;;;;;;;71.10;34.63;;;;;;;;;;754233;184;617898;-61
2022/03/12 04:21:06;;;;;;;64.17;35.30;;;;;;;;;;766033;184;630651;-61
2022/03/12 04:23:31;;;;;;;63.67;34.50;;;;;;;;;;763892;184;633288;-62
2022/03/12 04:25:58;;;;;;;65.80;35.40;;;;;;;;;;753136;187;625216;-62
2022/03/12 04:28:23;;;;;;;67.97;37.07;;;;;;;;;;748841;184;863589;-62
2022/03/12 04:30:49;;;;;;;63.77;34.97;;;;;;;;;;756651;186;644075;-63
2022/03/12 04:33:15;;;;;;;67.63;36.90;;;;;;;;;;758091;184;615334;-62
2022/03/12 04:35:41;;;;;;;64.30;35.90;;;;;;;;;;752502;185;640766;-62
2022/03/12 04:38:07;;;;;;;64.80;35.83;;;;;;;;;;752546;185;623271;-62
2022/03/12 04:40:32;;;;;;;68.17;38.87;;;;;;;;;;756355;185;630796;-62
2022/03/12 04:42:58;;;;;;;65.67;36.50;;;;;;;;;;758472;184;625047;-62
2022/03/12 04:45:25;;;;;;;68.07;37.13;;;;;;;;;;756176;186;626857;-62
2022/03/12 04:47:50;;;;;;;62.27;34.70;;;;;;;;;;759009;182;624217;-62
2022/03/12 04:50:16;;;;;;;78.67;38.17;;;;;;;;;;774375;181;615683;-62
2022/03/12 04:52:42;;;;;;;58.33;34.43;;;;;;;;;;764782;183;631473;-62
2022/03/12 04:55:10;;;;;;;70.63;36.20;;;;;;;;;;756885;184;623861;-61
2022/03/12 04:57:34;;;;;;;74.20;34.87;;;;;;;;;;760151;183;607400;-63
2022/03/12 04:59:59;;;;;;;56.83;32.77;;;;;;;;;;758651;184;633106;-61
2022/03/12 05:02:25;;;;;;;65.77;35.90;;;;;;;;;;757553;184;618965;-62
2022/03/12 05:04:51;;;;;;;67.67;34.67;;;;;;;;;;760264;183;798965;-61
2022/03/12 05:07:17;;;;;;;67.10;35.97;;;;;;;;;;759414;184;617551;-62
2022/03/12 05:09:44;;;;;;;70.77;38.40;;;;;;;;;;754578;184;640044;-61
2022/03/12 05:12:09;;;;;;;57.20;33.73;;;;;;;;;;755155;185;630254;-62
2022/03/12 05:14:35;;;;;;;71.53;35.23;;;;;;;;;;755732;184;630589;-62
2022/03/12 05:17:01;;;;;;;70.00;39.90;;;;;;;;;;756886;184;626792;-62
2022/03/12 05:19:27;;;;;;;94.63;47.97;;;;;;;;;;756024;184;631891;-62
2022/03/12 05:21:52;;;;;;;75.03;40.70;;;;;;;;;;759149;183;625332;-62
2022/03/12 05:24:18;;;;;;;89.27;49.73;;;;;;;;;;756241;184;661591;-61
2022/03/12 05:26:44;;;;;;;111.20;57.40;;;;;;;;;;755091;184;637642;-62
2022/03/12 05:29:10;;;;;;;94.97;48.83;;;;;;;;;;759978;184;629209;-62
2022/03/12 05:31:35;;;;;;;97.67;51.70;;;;;;;;;;759506;184;628498;-61
2022/03/12 05:34:01;;;;;;;102.67;55.57;;;;;;;;;;754398;185;640160;-62
2022/03/12 05:36:27;;;;;;;112.30;54.97;;;;;;;;;;761720;183;621004;-62
2022/03/12 05:38:53;;;;;;;96.17;53.67;;;;;;;;;;759277;183;636076;-62
2022/03/12 05:41:19;;;;;;;84.93;50.10;;;;;;;;;;752669;184;1008530;-62
2022/03/12 05:43:46;;;;;;;89.87;46.70;;;;;;;;;;760017;184;625862;-62
2022/03/12 05:46:12;;;;;;;76.47;44.57;;;;;;;;;;760094;181;631865;-62
2022/03/12 05:48:37;;;;;;;89.77;47.50;;;;;;;;;;756455;184;634342;-62
2022/03/12 05:51:03;;;;;;;85.83;45.80;;;;;;;;;;753371;184;635910;-62
2022/03/12 05:53:30;;;;;;;89.97;48.57;;;;;;;;;;761715;184;634019;-62
2022/03/12 05:55:55;;;;;;;91.63;52.30;;;;;;;;;;759907;184;632847;-62
2022/03/12 05:58:24;;;;;;;114.87;60.30;;;;;;;;;;756180;184;631999;-62
2022/03/12 06:00:46;;;;;;;94.07;55.50;;;;;;;;;;762595;184;627286;-62
2022/03/12 06:03:12;;;;;;;104.77;57.37;;;;;;;;;;752400;184;641322;-62
2022/03/12 06:05:41;;;;;;;105.53;57.53;;;;;;;;;;761357;183;628617;-62
2022/03/12 06:08:08;;;;;;;108.57;59.53;;;;;;;;;;757362;184;616329;-62
2022/03/12 06:10:35;;;;;;;123.13;62.53;;;;;;;;;;755577;184;616764;-61
2022/03/12 06:12:59;;;;;;;116.30;61.90;;;;;;;;;;759433;183;615901;-64
2022/03/12 06:15:25;;;;;;;109.93;59.57;;;;;;;;;;756917;184;619034;-62
2022/03/12 06:17:50;;;;;;;114.13;66.27;;;;;;;;;;757573;183;663051;-62
2022/03/12 06:20:16;;;;;;;154.40;86.13;;;;;;;;;;759067;183;616567;-63
2022/03/12 06:22:42;;;;;;;147.03;82.27;;;;;;;;;;756571;184;634187;-62
2022/03/12 06:25:08;;;;;;;144.57;79.03;;;;;;;;;;759568;184;613907;-62
2022/03/12 06:27:34;;;;;;;129.30;72.70;;;;;;;;;;753461;184;634171;-62
2022/03/12 06:30:00;;;;;;;124.57;69.70;;;;;;;;;;754865;184;618651;-62
2022/03/12 06:32:26;;;;;;;112.80;63.55;;;;;;;;;;756587;184;630526;-61
2022/03/12 06:34:52;;;;;;;109.10;67.33;;;;;;;;;;764735;183;669251;-63
2022/03/12 06:37:18;;;;;;;109.80;59.17;;;;;;;;;;757836;184;615592;-62
2022/03/12 06:39:44;;;;;;;97.53;54.13;;;;;;;;;;754550;184;618868;-63
2022/03/12 06:42:10;;;;;;;92.47;52.37;;;;;;;;;;757909;184;620596;-66
2022/03/12 06:44:37;;;;;;;96.23;48.80;;;;;;;;;;753996;183;626877;-63
2022/03/12 06:47:02;;;;;;;83.12;41.97;;;;;;;;;;757151;184;628684;-63
2022/03/12 06:49:27;;;;;;;67.77;35.10;;;;;;;;;;757640;184;617063;-64
2022/03/12 06:51:53;;;;;;;67.80;36.27;;;;;;;;;;755554;184;634285;-63
2022/03/12 06:54:19;;;;;;;57.10;28.77;;;;;;;;;;758157;184;626555;-64
2022/03/12 06:56:45;;;;;;;50.50;25.70;;;;;;;;;;758707;184;643514;-64
2022/03/12 06:59:11;;;;;;;39.73;22.00;;;;;;;;;;754122;184;646985;-64
2022/03/12 07:01:36;;;;;;;44.33;24.80;;;;;;;;;;754629;184;619273;-63
2022/03/12 07:04:02;;;;;;;38.83;20.40;;;;;;;;;;757361;184;618957;-64
2022/03/12 07:06:28;;;;;;;34.13;16.70;;;;;;;;;;754487;183;627413;-63
2022/03/12 07:08:55;;;;;;;32.13;14.50;;;;;;;;;;758896;184;639938;-64
2022/03/12 07:11:21;;;;;;;21.17;9.63;;;;;;;;;;753440;184;617325;-64
2022/03/12 07:13:47;;;;;;;15.60;8.67;;;;;;;;;;760399;184;626533;-65
2022/03/12 07:16:12;;;;;;;14.07;7.40;;;;;;;;;;761518;183;626834;-64
2022/03/12 07:18:38;;;;;;;10.97;7.47;;;;;;;;;;759289;184;662153;-63
2022/03/12 07:21:04;;;;;;;12.93;6.77;;;;;;;;;;760224;183;649813;-67
2022/03/12 07:23:30;;;;;;;13.30;6.77;;;;;;;;;;753775;184;651605;-66
2022/03/12 07:25:56;;;;;;;12.60;7.10;;;;;;;;;;756983;183;710131;-67
2022/03/12 07:28:22;;;;;;;11.57;7.43;;;;;;;;;;754639;184;666950;-65
2022/03/12 07:30:48;;;;;;;14.27;6.57;;;;;;;;;;744811;186;636095;-65
2022/03/12 07:33:14;;;;;;;12.73;6.53;;;;;;;;;;759201;183;644508;-66
2022/03/12 07:35:40;;;;;;;12.80;5.97;;;;;;;;;;756424;184;717440;-65
2022/03/12 07:38:05;;;;;;;7.40;4.33;;;;;;;;;;760217;184;656941;-66
2022/03/12 07:40:33;;;;;;;9.30;5.00;;;;;;;;;;757060;183;673334;-66
2022/03/12 07:42:58;;;;;;;9.33;4.90;;;;;;;;;;757743;184;680053;-65
2022/03/12 07:45:23;;;;;;;8.00;3.80;;;;;;;;;;758385;184;635904;-67
2022/03/12 07:47:52;;;;;;;13.50;4.80;;;;;;;;;;755611;184;663114;-67
2022/03/12 07:50:15;;;;;;;7.97;5.20;;;;;;;;;;754438;184;647265;-67
2022/03/12 07:52:42;;;;;;;8.25;2.80;;;;;;;;;;759571;184;638216;-67
2022/03/12 07:55:09;;;;;;;9.10;4.73;;;;;;;;;;755515;184;654772;-68
2022/03/12 07:57:34;;;;;;;10.47;4.43;;;;;;;;;;752966;184;650106;-68
2022/03/12 08:00:00;;;;;;;6.97;3.37;;;;;;;;;;755323;184;670860;-68
2022/03/12 08:02:25;;;;;;;8.63;4.60;;;;;;;;;;754812;184;739265;-69
2022/03/12 08:04:51;;;;;;;8.83;4.50;;;;;;;;;;754038;184;627661;-67
2022/03/12 08:07:17;;;;;;;8.23;4.97;;;;;;;;;;754506;183;699813;-67
2022/03/12 08:09:43;;;;;;;9.13;5.27;;;;;;;;;;759108;184;645811;-68
2022/03/12 08:12:09;;;;;;;7.80;4.23;;;;;;;;;;751149;184;636672;-68
2022/03/12 08:14:35;;;;;;;9.33;4.90;;;;;;;;;;749764;183;684585;-68
2022/03/12 08:17:01;;;;;;;8.47;4.67;;;;;;;;;;756550;184;699279;-69
2022/03/12 08:19:26;;;;;;;8.77;4.23;;;;;;;;;;752858;183;667544;-66
2022/03/12 08:21:52;;;;;;;8.57;4.23;;;;;;;;;;754558;184;653485;-67
2022/03/12 08:24:18;;;;;;;6.40;3.37;;;;;;;;;;753481;184;647850;-67
2022/03/12 08:26:44;;;;;;;8.43;4.93;;;;;;;;;;759329;184;636839;-69
2022/03/12 08:29:10;;;;;;;8.60;4.90;;;;;;;;;;759496;183;690700;-68
2022/03/12 08:31:36;;;;;;;13.60;5.10;;;;;;;;;;758850;182;774282;-68
2022/03/12 08:34:02;;;;;;;14.53;5.57;;;;;;;;;;760930;184;645008;-68
2022/03/12 08:36:28;;;;;;;8.35;3.60;;;;;;;;;;752506;184;757163;-67
2022/03/12 08:38:53;;;;;;;8.97;4.40;;;;;;;;;;753747;184;767147;-68
2022/03/12 08:41:22;;;;;;;10.97;4.00;;;;;;;;;;763329;184;637622;-67
2022/03/12 08:43:46;;;;;;;11.75;5.07;;;;;;;;;;755904;183;757871;-69
2022/03/12 08:46:11;;;;;;;8.67;4.43;;;;;;;;;;758353;183;626303;-69
2022/03/12 08:48:38;;;;;;;9.67;4.67;;;;;;;;;;755143;184;649780;-69
2022/03/12 08:51:03;;;;;;;5.60;3.50;;;;;;;;;;763680;181;656415;-69
2022/03/12 08:53:29;;;;;;;9.97;4.87;;;;;;;;;;756936;184;637604;-67
2022/03/12 08:55:54;;;;;;;6.40;3.93;;;;;;;;;;756055;184;627765;-68
2022/03/12 08:58:23;;;;;;;10.57;5.60;;;;;;;;;;760400;183;613789;-69
2022/03/12 09:00:46;;;;;;;7.40;4.57;;;;;;;;;;754938;183;645923;-68
2022/03/12 09:03:12;;;;;;;6.70;4.67;;;;;;;;;;753835;184;652132;-71
2022/03/12 09:05:38;;;;;;;6.20;4.27;;;;;;;;;;759160;184;629499;-69
2022/03/12 09:08:04;;;;;;;10.40;4.30;;;;;;;;;;756373;184;643728;-69
2022/03/12 09:10:30;;;;;;;12.13;4.97;;;;;;;;;;756344;184;652997;-69
2022/03/12 09:12:56;;;;;;;8.17;4.70;;;;;;;;;;758051;184;616127;-68
2022/03/12 09:15:22;;;;;;;9.30;4.23;;;;;;;;;;750990;184;791342;-69
2022/03/12 09:17:47;;;;;;;5.85;3.80;;;;;;;;;;753756;184;617644;-69
2022/03/12 09:20:13;;;;;;;6.57;4.20;;;;;;;;;;755130;184;635124;-68
2022/03/12 09:22:39;;;;;;;7.80;4.27;;;;;;;;;;756457;186;616054;-69
2022/03/12 09:25:08;;;;;;;8.10;4.63;;;;;;;;;;752702;184;637099;-69
2022/03/12 09:27:31;;;;;;;6.23;3.80;;;;;;;;;;755215;184;698787;-69
2022/03/12 09:29:57;;;;;;;9.68;3.80;;;;;;;;;;762492;184;620164;-70
2022/03/12 09:32:23;;;;;;;9.63;4.73;;;;;;;;;;746571;184;640768;-69
2022/03/12 09:34:49;;;;;;;8.93;4.47;;;;;;;;;;747095;184;625143;-68
2022/03/12 09:37:14;;;;;;;9.07;4.10;;;;;;;;;;761642;184;631895;-67
2022/03/12 09:39:41;;;;;;;7.77;4.70;;;;;;;;;;755444;183;632927;-69
2022/03/12 09:42:07;;;;;;;7.30;3.97;;;;;;;;;;753517;186;633188;-69
2022/03/12 09:44:33;;;;;;;8.13;4.27;;;;;;;;;;753069;186;633989;-68
2022/03/12 09:46:58;;;;;;;7.13;3.97;;;;;;;;;;759942;186;635946;-69
2022/03/12 09:49:24;;;;;;;6.90;3.93;;;;;;;;;;757038;184;623450;-69
2022/03/12 09:51:50;;;;;;;9.40;5.10;;;;;;;;;;752265;184;1562353;-71
2022/03/12 09:54:18;;;;;;;7.87;4.23;;;;;;;;;;760703;184;633230;-70
2022/03/12 09:56:42;;;;;;;8.07;4.07;;;;;;;;;;757365;183;631935;-69
2022/03/12 09:59:09;;;;;;;7.63;4.67;;;;;;;;;;755292;184;619502;-69
2022/03/12 10:01:35;;;;;;;7.33;4.70;;;;;;;;;;751127;184;639334;-69
2022/03/12 10:04:00;;;;;;;7.03;4.40;;;;;;;;;;746563;186;633569;-69
2022/03/12 10:06:28;;;;;;;9.30;4.33;;;;;;;;;;757536;183;618483;-70
2022/03/12 10:08:52;;;;;;;7.77;4.23;;;;;;;;;;756786;183;636184;-68
2022/03/12 10:11:18;;;;;;;4.93;3.50;;;;;;;;;;755716;183;627963;-71
2022/03/12 10:13:44;;;;;;;6.47;4.00;;;;;;;;;;757462;184;637927;-70
2022/03/12 10:16:10;;;;;;;9.20;4.70;;;;;;;;;;752653;185;624258;-69
2022/03/12 10:18:36;;;;;;;9.90;5.00;;;;;;;;;;758673;184;641804;-69
2022/03/12 10:21:01;;;;;;;6.27;4.47;;;;;;;;;;757276;184;618415;-70
2022/03/12 10:23:27;;;;;;;8.80;4.87;;;;;;;;;;756592;184;633631;-69
2022/03/12 10:25:53;;;;;;;6.47;4.17;;;;;;;;;;759965;184;616405;-71
2022/03/12 10:28:19;;;;;;;8.80;4.70;;;;;;;;;;756111;183;619110;-71
2022/03/12 10:30:45;;;;;;;11.75;4.32;;;;;;;;;;750652;184;1225436;-71
2022/03/12 10:33:11;;;;;;;8.33;4.60;;;;;;;;;;758414;184;635817;-70
2022/03/12 10:35:36;;;;;;;6.37;3.97;;;;;;;;;;756162;184;642550;-72
2022/03/12 10:38:02;;;;;;;8.07;4.77;;;;;;;;;;752934;184;631264;-72
2022/03/12 10:40:30;;;;;;;7.37;4.13;;;;;;;;;;752812;183;639491;-70
2022/03/12 10:42:56;;;;;;;9.77;5.10;;;;;;;;;;754542;184;624750;-71
2022/03/12 10:45:20;;;;;;;7.83;4.43;;;;;;;;;;756277;184;634492;-71
2022/03/12 10:47:47;;;;;;;7.23;4.70;;;;;;;;;;754935;184;635546;-71
2022/03/12 10:50:19;;;;;;;12.17;5.30;;;;;;;;;;764187;182;633108;-71
2022/03/12 10:52:46;;;;;;;7.03;4.63;;;;;;;;;;758044;183;636502;-71
2022/03/12 10:55:11;;;;;;;8.23;4.47;;;;;;;;;;754908;183;633053;-71
2022/03/12 10:57:37;;;;;;;8.47;4.60;;;;;;;;;;757199;183;627043;-71
2022/03/12 11:00:06;;;;;;;8.37;4.60;;;;;;;;;;761714;183;616312;-70
2022/03/12 11:02:29;;;;;;;8.30;4.43;;;;;;;;;;754478;184;637332;-71
2022/03/12 11:04:54;;;;;;;7.23;4.30;;;;;;;;;;756149;184;640812;-67
2022/03/12 11:07:20;;;;;;;6.87;3.60;;;;;;;;;;759291;184;892862;-72
2022/03/12 11:09:47;;;;;;;5.57;3.70;;;;;;;;;;754818;184;659373;-71
2022/03/12 11:12:30;;;;;;;7.30;4.53;;;;;;;;;;755704;184;623084;-71
2022/03/12 11:15:04;;;;;;;6.33;4.37;;;;;;;;;;752345;184;615143;-71
2022/03/12 11:17:24;;;;;;;7.23;4.60;;;;;;;;;;754899;184;623785;-72
2022/03/12 11:19:53;;;;;;;9.53;4.67;;;;;;;;;;760463;184;647424;-70
2022/03/12 11:22:18;;;;;;;7.70;4.60;;;;;;;;;;755640;183;627134;-73
2022/03/12 11:24:43;;;;;;;8.70;4.30;;;;;;;;;;753006;184;634738;-72
2022/03/12 11:27:09;;;;;;;7.57;4.87;;;;;;;;;;761165;182;628819;-72
2022/03/12 11:29:35;;;;;;;6.50;4.53;;;;;;;;;;752223;184;642334;-71
2022/03/12 11:32:02;;;;;;;7.43;4.50;;;;;;;;;;759223;183;618845;-71
2022/03/12 11:34:30;;;;;;;7.67;5.00;;;;;;;;;;759547;185;613896;-72
2022/03/12 11:36:58;;;;;;;10.53;5.80;;;;;;;;;;749570;185;627211;-70
2022/03/12 11:39:30;;;;;;;10.13;5.60;;;;;;;;;;750545;184;616808;-71
2022/03/12 11:42:00;;;;;;;7.37;3.93;;;;;;;;;;752257;184;621627;-73
2022/03/12 11:44:25;;;;;;;7.87;5.00;;;;;;;;;;767391;184;656039;-71
2022/03/12 11:46:51;;;;;;;9.73;5.50;;;;;;;;;;759851;184;629491;-71
2022/03/12 11:49:17;;;;;;;10.17;6.30;;;;;;;;;;754173;185;628311;-71
2022/03/12 11:51:44;;;;;;;8.63;5.00;;;;;;;;;;757113;184;625730;-72
2022/03/12 11:54:08;;;;;;;9.70;6.27;;;;;;;;;;764562;184;627852;-71
2022/03/12 11:56:34;;;;;;;12.93;4.57;;;;;;;;;;756049;184;622406;-71
2022/03/12 11:59:00;;;;;;;6.57;4.23;;;;;;;;;;755250;184;615121;-71
2022/03/12 12:01:26;;;;;;;11.67;4.70;;;;;;;;;;757955;183;628753;-70
2022/03/12 12:03:53;;;;;;;12.90;5.53;;;;;;;;;;756651;183;619542;-70
2022/03/12 12:06:18;;;;;;;9.37;6.03;;;;;;;;;;758923;184;624544;-72
2022/03/12 12:08:43;;;;;;;7.77;4.80;;;;;;;;;;759093;184;635890;-70
2022/03/12 12:11:11;;;;;;;8.77;4.80;;;;;;;;;;758189;183;629598;-70
2022/03/12 12:13:35;;;;;;;9.33;4.73;;;;;;;;;;756927;184;628237;-71
2022/03/12 12:16:04;;;;;;;7.93;5.07;;;;;;;;;;760662;183;624536;-70
2022/03/12 12:18:27;;;;;;;9.57;5.20;;;;;;;;;;763479;183;663050;-70
2022/03/12 12:20:53;;;;;;;8.30;4.67;;;;;;;;;;761404;184;645200;-70
2022/03/12 12:23:18;;;;;;;10.20;5.60;;;;;;;;;;752508;184;626979;-70
2022/03/12 12:25:44;;;;;;;13.57;4.50;;;;;;;;;;758174;186;617186;-70
2022/03/12 12:28:13;;;;;;;11.80;4.97;;;;;;;;;;749235;185;627886;-71
2022/03/12 12:30:39;;;;;;;6.13;3.83;;;;;;;;;;748608;184;625200;-70
2022/03/12 12:33:10;;;;;;;9.60;4.97;;;;;;;;;;753032;183;632898;-71
2022/03/12 12:35:36;;;;;;;8.60;4.70;;;;;;;;;;749411;184;777859;-70
2022/03/12 12:38:02;;;;;;;9.67;4.27;;;;;;;;;;750109;183;627067;-70
2022/03/12 12:40:32;;;;;;;9.43;5.80;;;;;;;;;;748752;183;625830;-70
2022/03/12 12:42:58;;;;;;;8.30;4.93;;;;;;;;;;752634;183;635452;-70
2022/03/12 12:45:24;;;;;;;17.23;7.13;;;;;;;;;;749936;184;643154;-71
2022/03/12 12:47:56;;;;;;;7.03;4.13;;;;;;;;;;749503;187;623318;-71
2022/03/12 12:50:22;;;;;;;9.60;5.10;;;;;;;;;;748311;184;634941;-70
2022/03/12 12:52:48;;;;;;;10.40;5.30;;;;;;;;;;757887;182;618941;-70
2022/03/12 12:55:14;;;;;;;7.90;5.03;;;;;;;;;;750862;186;626785;-71
2022/03/12 12:57:40;;;;;;;8.30;4.70;;;;;;;;;;757283;184;635732;-70
2022/03/12 13:00:08;;;;;;;9.20;5.50;;;;;;;;;;770547;184;618985;-70
2022/03/12 13:02:43;;;;;;;6.83;4.50;;;;;;;;;;760442;184;632929;-71
2022/03/12 13:05:12;;;;;;;8.37;4.80;;;;;;;;;;753496;184;631723;-70
2022/03/12 13:07:35;;;;;;;7.03;4.40;;;;;;;;;;753281;184;626059;-71
2022/03/12 13:10:01;;;;;;;13.23;6.03;;;;;;;;;;756115;184;616117;-70
2022/03/12 13:12:33;;;;;;;12.13;5.93;;;;;;;;;;752455;185;627236;-71
2022/03/12 13:14:58;;;;;;;9.10;5.37;;;;;;;;;;754859;184;630416;-69
2022/03/12 13:17:25;;;;;;;12.60;5.07;;;;;;;;;;753353;183;633569;-69
2022/03/12 13:19:51;;;;;;;5.67;4.20;;;;;;;;;;758267;184;641563;-71
2022/03/12 13:22:17;;;;;;;8.90;5.10;;;;;;;;;;759987;184;630186;-70
2022/03/12 13:24:43;;;;;;;7.53;4.37;;;;;;;;;;756143;184;624840;-71
2022/03/12 13:27:15;;;;;;;9.52;4.53;;;;;;;;;;760080;184;749159;-71
2022/03/12 13:29:41;;;;;;;6.60;4.87;;;;;;;;;;758361;184;618839;-69
2022/03/12 13:32:08;;;;;;;9.17;5.50;;;;;;;;;;759285;184;614505;-69
2022/03/12 13:34:33;;;;;;;7.40;4.80;;;;;;;;;;755660;184;629334;-69
2022/03/12 13:36:59;;;;;;;8.90;5.70;;;;;;;;;;760714;183;629300;-71
2022/03/12 13:39:24;;;;;;;16.12;5.65;;;;;;;;;;755593;183;637921;-70
2022/03/12 13:41:50;;;;;;;8.37;4.47;;;;;;;;;;751096;184;627492;-70
2022/03/12 13:44:16;;;;;;;9.17;4.50;;;;;;;;;;758248;183;627998;-71
2022/03/12 13:46:42;;;;;;;8.47;4.87;;;;;;;;;;756627;184;626913;-71
2022/03/12 13:49:09;;;;;;;8.00;4.80;;;;;;;;;;756115;184;629210;-71
2022/03/12 13:51:34;;;;;;;9.83;5.10;;;;;;;;;;756535;186;629385;-70
2022/03/12 13:54:00;;;;;;;9.30;4.50;;;;;;;;;;758273;184;627117;-70
2022/03/12 13:56:28;;;;;;;10.57;4.87;;;;;;;;;;758309;186;624525;-71
2022/03/12 13:58:53;;;;;;;9.03;5.67;;;;;;;;;;756123;186;637408;-70
2022/03/12 14:01:25;;;;;;;11.37;4.50;;;;;;;;;;751998;184;621077;-70
2022/03/12 14:03:49;;;;;;;7.70;4.40;;;;;;;;;;751063;184;712603;-70
2022/03/12 14:06:22;;;;;;;9.60;5.20;;;;;;;;;;752218;186;627328;-70